createdAt,value
2023-05-13T00:02:26.216Z,67.10
2023-05-13T00:04:54.219Z,67.23
2023-05-13T00:07:22.065Z,67.26
2023-05-13T00:09:49.899Z,67.33
2023-05-13T00:12:17.702Z,67.24
2023-05-13T00:14:45.231Z,67.21
2023-05-13T00:17:12.835Z,67.27
2023-05-13T00:19:40.841Z,67.12
2023-05-13T00:22:09.147Z,66.93
2023-05-13T00:24:37.013Z,66.99
2023-05-13T00:27:05.079Z,67.01
2023-05-13T00:29:34.482Z,67.10
2023-05-13T00:32:02.158Z,67.24
2023-05-13T00:34:30.180Z,67.85
2023-05-13T00:36:57.797Z,67.89
2023-05-13T00:39:25.555Z,67.76
2023-05-13T00:41:53.113Z,68.13
2023-05-13T00:44:20.894Z,67.95
2023-05-13T00:46:49.937Z,67.83
2023-05-13T00:49:17.719Z,67.93
2023-05-13T00:51:45.579Z,68.11
2023-05-13T00:54:13.608Z,68.13
2023-05-13T00:56:41.211Z,68.22
2023-05-13T00:59:08.759Z,68.15
2023-05-13T01:02:05.808Z,68.30
2023-05-13T01:05:15.197Z,68.23
2023-05-13T01:08:26.077Z,68.21
2023-05-13T01:11:05.115Z,68.30
2023-05-13T01:13:39.457Z,68.25
2023-05-13T01:16:22.756Z,68.28
2023-05-13T01:18:56.058Z,68.25
2023-05-13T01:21:28.016Z,68.26
2023-05-13T01:23:56.313Z,68.37
2023-05-13T01:26:26.182Z,68.50
2023-05-13T01:28:54.062Z,68.47
2023-05-13T01:31:24.108Z,68.59
2023-05-13T01:33:52.016Z,68.72
2023-05-13T01:36:20.430Z,68.74
2023-05-13T01:38:49.962Z,68.95
2023-05-13T01:41:18.902Z,69.00
2023-05-13T01:43:46.238Z,68.96
2023-05-13T01:46:14.096Z,69.14
2023-05-13T01:48:42.127Z,69.12
2023-05-13T01:51:10.133Z,69.26
2023-05-13T01:53:37.939Z,69.25
2023-05-13T01:56:10.622Z,69.32
2023-05-13T01:58:38.322Z,69.38
2023-05-13T02:01:06.072Z,69.44
2023-05-13T02:03:34.984Z,69.45
2023-05-13T02:06:02.933Z,69.59
2023-05-13T02:08:30.684Z,69.74
2023-05-13T02:10:59.716Z,69.76
2023-05-13T02:13:29.201Z,69.91
2023-05-13T02:15:57.878Z,70.12
2023-05-13T02:18:25.787Z,70.35
2023-05-13T02:20:53.411Z,70.30
2023-05-13T02:23:21.269Z,70.39
2023-05-13T02:25:48.975Z,70.52
2023-05-13T02:28:16.630Z,70.63
2023-05-13T02:30:44.196Z,70.73
2023-05-13T02:33:12.602Z,70.75
2023-05-13T02:35:40.360Z,70.85
2023-05-13T02:38:10.379Z,71.01
2023-05-13T02:40:38.272Z,71.19
2023-05-13T02:43:06.467Z,71.24
2023-05-13T02:45:35.977Z,71.53
2023-05-13T02:48:04.053Z,71.58
2023-05-13T02:50:31.681Z,71.78
2023-05-13T02:52:59.173Z,71.98
2023-05-13T02:55:27.063Z,72.52
2023-05-13T02:57:56.256Z,73.15
2023-05-13T03:00:24.316Z,73.33
2023-05-13T03:02:52.329Z,73.59
2023-05-13T03:05:20.062Z,73.66
2023-05-13T03:07:47.814Z,73.73
2023-05-13T03:10:15.538Z,74.15
2023-05-13T03:12:43.444Z,74.04
2023-05-13T03:15:11.328Z,74.24
2023-05-13T03:17:39.101Z,74.29
2023-05-13T03:20:08.137Z,74.19
2023-05-13T03:22:40.521Z,74.32
2023-05-13T03:25:08.629Z,74.52
2023-05-13T03:27:38.988Z,74.61
2023-05-13T03:30:07.921Z,75.01
2023-05-13T03:32:37.677Z,75.01
2023-05-13T03:35:09.601Z,75.02
2023-05-13T03:37:37.752Z,74.96
2023-05-13T03:40:07.050Z,75.07
2023-05-13T03:43:02.224Z,75.24
2023-05-13T03:45:30.825Z,75.26
2023-05-13T03:48:00.545Z,75.33
2023-05-13T03:50:28.397Z,75.72
2023-05-13T03:52:56.675Z,75.82
2023-05-13T03:55:24.581Z,76.12
2023-05-13T03:57:52.308Z,76.29
2023-05-13T04:00:21.543Z,76.27
2023-05-13T04:02:50.000Z,76.52
2023-05-13T04:05:18.080Z,76.77
2023-05-13T04:07:46.761Z,76.92
2023-05-13T04:10:16.165Z,77.51
2023-05-13T04:12:44.842Z,77.76
2023-05-13T04:15:12.665Z,77.67
2023-05-13T04:17:41.232Z,77.66
2023-05-13T04:20:09.571Z,77.91
2023-05-13T04:22:36.987Z,78.16
2023-05-13T04:25:05.666Z,78.00
2023-05-13T04:27:33.504Z,78.25
2023-05-13T04:30:07.038Z,78.31
2023-05-13T04:32:35.680Z,78.37
2023-05-13T04:35:03.958Z,78.44
2023-05-13T04:37:32.685Z,78.69
2023-05-13T04:40:02.234Z,78.70
2023-05-13T04:42:30.497Z,78.96
2023-05-13T04:44:58.356Z,79.66
2023-05-13T04:47:26.438Z,79.37
2023-05-13T04:49:55.885Z,79.64
2023-05-13T04:52:30.044Z,79.59
2023-05-13T04:57:51.362Z,80.53
2023-05-13T05:00:19.235Z,80.50
2023-05-13T05:02:49.243Z,80.28
2023-05-13T05:05:18.517Z,80.63
2023-05-13T05:07:46.878Z,80.66
2023-05-13T05:10:17.070Z,80.98
2023-05-13T05:12:46.512Z,81.26
2023-05-13T05:15:17.315Z,81.05
2023-05-13T05:17:47.086Z,81.02
2023-05-13T05:20:17.037Z,81.06
2023-05-13T05:22:45.709Z,81.11
2023-05-13T05:25:17.122Z,81.33
2023-05-13T05:27:45.136Z,81.16
2023-05-13T05:30:14.026Z,81.34
2023-05-13T05:32:44.487Z,81.58
2023-05-13T05:35:21.556Z,81.43
2023-05-13T05:37:57.237Z,81.60
2023-05-13T05:40:26.918Z,81.64
2023-05-13T05:42:54.484Z,81.68
2023-05-13T05:45:22.361Z,81.60
2023-05-13T05:47:50.885Z,81.46
2023-05-13T05:50:20.747Z,81.72
2023-05-13T05:52:49.182Z,81.75
2023-05-13T05:55:19.291Z,81.46
2023-05-13T05:57:46.914Z,81.47
2023-05-13T06:00:15.516Z,81.50
2023-05-13T06:02:43.101Z,81.62
2023-05-13T06:05:12.321Z,81.44
2023-05-13T06:07:40.656Z,81.42
2023-05-13T06:10:09.331Z,81.59
2023-05-13T06:12:37.234Z,81.47
2023-05-13T06:15:08.214Z,81.43
2023-05-13T06:17:37.474Z,81.11
2023-05-13T06:20:12.429Z,81.03
2023-05-13T06:22:47.533Z,81.10
2023-05-13T06:25:15.783Z,80.78
2023-05-13T06:27:44.414Z,80.76
2023-05-13T06:30:12.415Z,80.59
2023-05-13T06:32:50.277Z,80.41
2023-05-13T06:35:13.109Z,79.94
2023-05-13T06:37:40.948Z,79.56
2023-05-13T06:40:09.516Z,79.45
2023-05-13T06:42:40.675Z,79.60
2023-05-13T06:45:13.404Z,79.62
2023-05-13T06:47:45.891Z,79.37
2023-05-13T06:50:13.362Z,79.01
2023-05-13T06:52:43.062Z,78.86
2023-05-13T06:55:12.701Z,78.89
2023-05-13T06:57:43.381Z,78.84
2023-05-13T07:00:10.733Z,78.72
2023-05-13T07:02:42.731Z,78.41
2023-05-13T07:05:12.419Z,78.36
2023-05-13T07:07:39.877Z,78.37
2023-05-13T07:10:08.045Z,77.77
2023-05-13T07:12:36.381Z,77.87
2023-05-13T07:15:11.876Z,77.73
2023-05-13T07:17:43.191Z,77.44
2023-05-13T07:20:35.746Z,77.40
2023-05-13T07:23:13.028Z,76.75
2023-05-13T07:25:41.200Z,77.01
2023-05-13T07:28:09.818Z,76.31
2023-05-13T07:30:42.516Z,76.06
2023-05-13T07:33:10.258Z,75.55
2023-05-13T07:35:37.850Z,75.36
2023-05-13T07:38:07.868Z,75.31
2023-05-13T07:40:35.555Z,75.25
2023-05-13T07:43:03.212Z,75.14
2023-05-13T07:45:32.293Z,74.69
2023-05-13T07:48:00.109Z,73.73
2023-05-13T07:50:28.059Z,73.92
2023-05-13T07:52:59.874Z,73.72
2023-05-13T07:55:30.019Z,73.49
2023-05-13T07:57:59.422Z,73.24
2023-05-13T08:00:27.344Z,72.09
2023-05-13T08:02:56.568Z,72.63
2023-05-13T08:05:24.360Z,72.77
2023-05-13T08:07:52.414Z,72.58
2023-05-13T08:10:23.643Z,71.73
2023-05-13T08:12:54.833Z,71.69
2023-05-13T08:15:25.721Z,70.93
2023-05-13T08:17:54.450Z,70.35
2023-05-13T08:20:24.073Z,70.36
2023-05-13T08:22:51.428Z,69.84
2023-05-13T08:25:19.386Z,69.73
2023-05-13T08:27:47.072Z,68.62
2023-05-13T08:30:15.505Z,69.26
2023-05-13T08:32:43.307Z,69.04
2023-05-13T08:35:13.920Z,68.83
2023-05-13T08:37:41.548Z,67.56
2023-05-13T08:40:11.837Z,67.34
2023-05-13T08:42:45.910Z,67.18
2023-05-13T08:45:16.209Z,67.04
2023-05-13T08:48:02.247Z,67.00
2023-05-13T08:50:32.146Z,65.97
2023-05-13T08:53:00.621Z,65.65
2023-05-13T08:55:29.308Z,64.72
2023-05-13T08:57:58.389Z,64.71
2023-05-13T09:00:26.625Z,64.15
2023-05-13T09:02:53.920Z,62.81
2023-05-13T09:05:27.619Z,63.12
2023-05-13T09:07:55.856Z,62.47
2023-05-13T09:10:26.860Z,62.12
2023-05-13T09:12:55.270Z,62.48
2023-05-13T09:15:27.669Z,54.10
2023-05-13T09:18:06.237Z,53.56
2023-05-13T09:20:35.305Z,52.01
2023-05-13T09:23:11.694Z,49.46
2023-05-13T09:25:40.564Z,49.44
2023-05-13T09:28:14.567Z,46.92
2023-05-13T09:30:45.484Z,48.09
2023-05-13T09:33:19.300Z,46.60
2023-05-13T09:35:53.506Z,46.37
2023-05-13T09:38:30.836Z,46.13
2023-05-13T09:41:03.171Z,45.07
2023-05-13T09:43:32.872Z,45.20
2023-05-13T09:46:04.933Z,45.75
2023-05-13T09:48:34.357Z,45.33
2023-05-13T09:51:02.216Z,45.36
2023-05-13T09:53:31.562Z,43.86
2023-05-13T09:56:00.956Z,42.89
2023-05-13T09:58:30.316Z,45.46
2023-05-13T10:00:58.698Z,44.59
2023-05-13T10:03:31.145Z,42.65
2023-05-13T10:06:02.238Z,43.40
2023-05-13T10:08:37.080Z,42.29
2023-05-13T10:11:10.936Z,43.87
2023-05-13T10:13:46.571Z,43.98
2023-05-13T10:16:14.601Z,42.82
2023-05-13T10:18:43.119Z,40.65
2023-05-13T10:21:12.836Z,40.95
2023-05-13T10:23:40.810Z,42.06
2023-05-13T10:26:09.153Z,40.45
2023-05-13T10:28:38.578Z,40.63
2023-05-13T10:31:07.702Z,40.56
2023-05-13T10:33:35.882Z,40.81
2023-05-13T10:37:00.058Z,41.16
2023-05-13T10:39:41.582Z,41.31
2023-05-13T10:42:41.979Z,40.61
2023-05-13T10:45:10.862Z,39.96
2023-05-13T10:47:39.432Z,39.73
2023-05-13T10:50:22.811Z,39.77
2023-05-13T10:52:56.657Z,40.41
2023-05-13T10:55:26.825Z,41.72
2023-05-13T10:58:10.483Z,40.13
2023-05-13T11:00:42.077Z,40.41
2023-05-13T11:03:23.624Z,39.16
2023-05-13T11:06:20.179Z,40.29
2023-05-13T11:08:52.504Z,40.45
2023-05-13T11:11:28.457Z,40.09
2023-05-13T11:14:20.495Z,39.22
2023-05-13T11:17:06.226Z,39.75
2023-05-13T11:19:50.944Z,40.14
2023-05-13T11:22:23.431Z,38.65
2023-05-13T11:25:10.395Z,39.78
2023-05-13T11:27:42.088Z,37.92
2023-05-13T11:30:26.425Z,39.13
2023-05-13T11:32:57.585Z,38.41
2023-05-13T11:35:31.022Z,38.20
2023-05-13T11:38:01.893Z,38.36
2023-05-13T11:40:33.859Z,37.34
2023-05-13T11:43:06.205Z,37.40
2023-05-13T11:45:40.726Z,36.90
2023-05-13T11:48:23.558Z,37.25
2023-05-13T11:50:51.485Z,37.12
2023-05-13T11:53:22.324Z,38.83
2023-05-13T11:55:50.753Z,39.39
2023-05-13T11:58:20.940Z,39.38
2023-05-13T12:00:49.126Z,38.69
2023-05-13T12:03:19.040Z,37.29
2023-05-13T12:05:48.688Z,36.42
2023-05-13T12:08:16.308Z,34.94
2023-05-13T12:10:45.712Z,35.13
2023-05-13T12:13:16.875Z,33.46
2023-05-13T12:15:45.755Z,33.22
2023-05-13T12:18:13.624Z,34.48
2023-05-13T12:20:41.445Z,34.88
2023-05-13T12:23:12.060Z,34.24
2023-05-13T12:25:44.368Z,34.15
2023-05-13T12:28:23.655Z,33.96
2023-05-13T12:31:35.445Z,34.51
2023-05-13T12:34:03.727Z,35.08
2023-05-13T12:36:33.542Z,33.37
2023-05-13T12:39:35.085Z,33.56
2023-05-13T12:41:57.046Z,33.92
2023-05-13T12:44:29.559Z,34.59
2023-05-13T12:46:59.884Z,35.03
2023-05-13T12:49:27.748Z,34.15
2023-05-13T12:51:58.133Z,33.96
2023-05-13T12:54:26.970Z,35.16
2023-05-13T12:56:54.511Z,35.07
2023-05-13T12:59:27.714Z,34.37
2023-05-13T13:01:55.316Z,34.46
2023-05-13T13:04:22.868Z,34.28
2023-05-13T13:06:50.437Z,33.05
2023-05-13T13:09:20.967Z,33.86
2023-05-13T13:11:52.175Z,34.11
2023-05-13T13:14:25.609Z,35.05
2023-05-13T13:16:55.252Z,35.81
2023-05-13T13:19:22.994Z,36.53
2023-05-13T13:21:50.659Z,35.92
2023-05-13T13:24:19.761Z,35.83
2023-05-13T13:26:50.496Z,35.57
2023-05-13T13:29:18.035Z,36.71
2023-05-13T13:31:46.445Z,36.60
2023-05-13T13:34:17.142Z,36.48
2023-05-13T13:36:45.484Z,35.89
2023-05-13T13:39:13.046Z,35.80
2023-05-13T13:41:40.932Z,36.30
2023-05-13T13:44:08.629Z,35.12
2023-05-13T13:46:36.438Z,34.85
2023-05-13T13:49:16.285Z,33.70
2023-05-13T13:51:34.042Z,34.30
2023-05-13T13:54:05.836Z,34.70
2023-05-13T13:56:37.696Z,35.26
2023-05-13T13:59:05.976Z,34.61
2023-05-13T14:01:33.926Z,34.87
2023-05-13T14:04:19.420Z,36.41
2023-05-13T14:06:46.717Z,37.53
2023-05-13T14:09:15.610Z,38.25
2023-05-13T14:11:43.137Z,38.51
2023-05-13T14:14:11.090Z,38.58
2023-05-13T14:16:39.345Z,38.53
2023-05-13T14:19:07.299Z,38.81
2023-05-13T14:21:35.471Z,39.57
2023-05-13T14:24:03.505Z,39.84
2023-05-13T14:26:31.328Z,40.35
2023-05-13T14:28:58.923Z,40.80
2023-05-13T14:31:27.688Z,39.98
2023-05-13T14:33:55.552Z,40.62
2023-05-13T14:36:26.225Z,40.34
2023-05-13T14:38:56.864Z,40.24
2023-05-13T14:41:25.315Z,40.02
2023-05-13T14:43:53.102Z,40.36
2023-05-13T14:46:20.906Z,41.07
2023-05-13T14:48:54.591Z,40.91
2023-05-13T14:51:22.622Z,40.80
2023-05-13T14:53:51.965Z,40.69
2023-05-13T14:56:19.899Z,40.30
2023-05-13T14:58:50.519Z,40.55
2023-05-13T15:01:18.168Z,40.78
2023-05-13T15:03:45.897Z,41.26
2023-05-13T15:06:15.696Z,41.29
2023-05-13T15:08:43.582Z,41.36
2023-05-13T15:11:11.257Z,41.60
2023-05-13T15:13:38.769Z,41.64
2023-05-13T15:16:08.049Z,41.53
2023-05-13T15:18:35.816Z,41.49
2023-05-13T15:21:03.656Z,41.66
2023-05-13T15:23:31.588Z,41.99
2023-05-13T15:26:00.281Z,41.97
2023-05-13T15:28:28.648Z,42.00
2023-05-13T15:30:56.408Z,42.26
2023-05-13T15:33:25.885Z,42.37
2023-05-13T15:35:54.056Z,42.52
2023-05-13T15:38:21.607Z,42.74
2023-05-13T15:40:49.982Z,42.42
2023-05-13T15:43:17.948Z,42.31
2023-05-13T15:45:49.209Z,42.39
2023-05-13T15:48:17.662Z,42.55
2023-05-13T15:50:45.831Z,42.56
2023-05-13T15:53:13.360Z,42.87
2023-05-13T15:55:44.130Z,43.06
2023-05-13T15:58:12.023Z,43.13
2023-05-13T16:00:39.701Z,43.28
2023-05-13T16:03:07.193Z,43.62
2023-05-13T16:05:36.474Z,43.59
2023-05-13T16:08:04.568Z,43.76
2023-05-13T16:10:34.258Z,44.08
2023-05-13T16:13:02.491Z,44.63
2023-05-13T16:15:29.976Z,44.76
2023-05-13T16:17:58.451Z,44.85
2023-05-13T16:20:27.202Z,45.05
2023-05-13T16:22:54.880Z,44.95
2023-05-13T16:25:25.272Z,45.04
2023-05-13T16:27:56.298Z,45.05
2023-05-13T16:30:44.831Z,45.46
2023-05-13T16:33:14.302Z,45.62
2023-05-13T16:35:47.441Z,45.68
2023-05-13T16:38:15.299Z,45.75
2023-05-13T16:40:43.960Z,45.77
2023-05-13T16:43:15.032Z,45.95
2023-05-13T16:45:45.398Z,46.39
2023-05-13T16:48:15.302Z,46.45
2023-05-13T16:50:58.620Z,46.64
2023-05-13T16:53:26.386Z,46.86
2023-05-13T16:55:56.132Z,47.06
2023-05-13T16:58:24.995Z,47.15
2023-05-13T17:00:59.516Z,47.35
2023-05-13T17:03:27.050Z,47.56
2023-05-13T17:05:55.267Z,47.85
2023-05-13T17:08:23.895Z,48.23
2023-05-13T17:10:59.195Z,48.49
2023-05-13T17:13:21.553Z,48.64
2023-05-13T17:15:50.196Z,49.04
2023-05-13T17:18:24.115Z,49.25
2023-05-13T17:21:03.205Z,49.58
2023-05-13T17:23:54.840Z,50.12
2023-05-13T17:26:24.522Z,50.21
2023-05-13T17:29:05.241Z,50.26
2023-05-13T17:31:33.263Z,50.17
2023-05-13T17:34:05.830Z,50.27
2023-05-13T17:36:36.003Z,50.33
2023-05-13T17:39:04.149Z,50.33
2023-05-13T17:41:32.158Z,50.44
2023-05-13T17:44:03.825Z,50.67
2023-05-13T17:46:32.416Z,50.66
2023-05-13T17:49:02.191Z,50.86
2023-05-13T17:51:31.954Z,50.97
2023-05-13T17:54:00.846Z,51.20
2023-05-13T17:56:34.618Z,51.25
2023-05-13T17:59:03.873Z,51.48
2023-05-13T18:04:48.993Z,51.87
2023-05-13T18:07:16.844Z,52.18
2023-05-13T18:09:48.562Z,52.55
2023-05-13T18:12:15.903Z,53.05
2023-05-13T18:14:43.802Z,53.25
2023-05-13T18:17:14.747Z,53.48
2023-05-13T18:19:42.455Z,53.89
2023-05-13T18:22:10.410Z,54.21
2023-05-13T18:24:38.664Z,54.34
2023-05-13T18:27:10.110Z,54.56
2023-05-13T18:29:38.939Z,54.72
2023-05-13T18:32:11.007Z,54.86
2023-05-13T18:34:39.230Z,55.13
2023-05-13T18:37:06.902Z,55.43
2023-05-13T18:39:34.762Z,55.66
2023-05-13T18:42:02.861Z,56.03
2023-05-13T18:44:30.597Z,56.40
2023-05-13T18:46:57.965Z,57.17
2023-05-13T18:49:28.911Z,57.49
2023-05-13T18:51:56.930Z,57.98
2023-05-13T18:54:28.797Z,58.37
2023-05-13T18:56:56.882Z,58.66
2023-05-13T18:59:24.541Z,59.00
2023-05-13T19:01:52.942Z,59.38
2023-05-13T19:04:20.969Z,59.69
2023-05-13T19:06:48.876Z,60.18
2023-05-13T19:09:16.683Z,61.17
2023-05-13T19:11:47.159Z,61.15
2023-05-13T19:14:15.024Z,61.66
2023-05-13T19:16:48.139Z,61.61
2023-05-13T19:19:16.075Z,61.79
2023-05-13T19:21:45.651Z,62.09
2023-05-13T19:24:13.476Z,62.30
2023-05-13T19:26:41.165Z,62.57
2023-05-13T19:29:09.152Z,62.69
2023-05-13T19:31:36.805Z,62.96
2023-05-13T19:34:04.725Z,63.13
2023-05-13T19:36:32.696Z,63.33
2023-05-13T19:39:00.644Z,63.37
2023-05-13T19:41:28.182Z,63.70
2023-05-13T19:43:56.297Z,63.87
2023-05-13T19:46:24.136Z,64.29
2023-05-13T19:48:52.078Z,64.45
2023-05-13T19:51:20.094Z,64.59
2023-05-13T19:53:47.860Z,64.70
2023-05-13T19:56:16.586Z,65.16
2023-05-13T19:58:44.445Z,65.30
2023-05-13T20:01:14.249Z,65.32
2023-05-13T20:03:45.370Z,65.37
2023-05-13T20:06:13.055Z,65.66
2023-05-13T20:08:42.686Z,65.84
2023-05-13T20:11:14.006Z,65.94
2023-05-13T20:13:52.958Z,66.35
2023-05-13T20:16:22.950Z,66.41
2023-05-13T20:18:54.527Z,66.32
2023-05-13T20:21:22.505Z,66.30
2023-05-13T20:23:50.908Z,66.19
2023-05-13T20:26:18.749Z,66.06
2023-05-13T20:28:47.316Z,66.03
2023-05-13T20:31:15.739Z,66.16
2023-05-13T20:33:46.207Z,66.55
2023-05-13T20:36:16.968Z,66.63
2023-05-13T20:38:45.801Z,67.01
2023-05-13T20:41:14.016Z,67.22
2023-05-13T20:43:43.679Z,67.11
2023-05-13T20:46:16.328Z,67.17
2023-05-13T20:48:44.014Z,67.30
2023-05-13T20:51:11.722Z,67.30
2023-05-13T20:53:39.788Z,67.30
2023-05-13T20:56:09.255Z,67.64
2023-05-13T20:58:37.000Z,67.66
2023-05-13T21:01:06.592Z,67.71
2023-05-13T21:03:35.211Z,67.99
2023-05-13T21:06:05.875Z,68.10
2023-05-13T21:08:35.454Z,68.14
2023-05-13T21:11:03.938Z,68.24
2023-05-13T21:13:31.959Z,68.33
2023-05-13T21:16:04.542Z,68.46
2023-05-13T21:18:33.573Z,68.54
2023-05-13T21:21:01.558Z,68.82
2023-05-13T21:23:29.075Z,69.16
2023-05-13T21:26:02.299Z,69.40
2023-05-13T21:28:29.922Z,69.67
2023-05-13T21:30:57.749Z,69.76
2023-05-13T21:33:25.699Z,69.80
2023-05-13T21:35:53.694Z,69.79
2023-05-13T21:38:22.040Z,69.75
2023-05-13T21:40:49.904Z,70.03
2023-05-13T21:43:17.816Z,70.42
2023-05-13T21:45:49.741Z,70.35
2023-05-13T21:48:18.657Z,70.64
2023-05-13T21:50:46.401Z,70.50
2023-05-13T21:53:14.445Z,70.86
2023-05-13T21:55:42.273Z,70.55
2023-05-13T21:58:10.045Z,70.58
2023-05-13T22:00:37.794Z,71.00
2023-05-13T22:03:05.541Z,70.88
2023-05-13T22:05:33.168Z,70.99
2023-05-13T22:08:01.319Z,71.20
2023-05-13T22:10:30.224Z,71.10
2023-05-13T22:12:58.104Z,71.26
2023-05-13T22:15:28.376Z,71.37
2023-05-13T22:17:56.215Z,71.50
2023-05-13T22:20:24.781Z,71.57
2023-05-13T22:22:52.773Z,71.73
2023-05-13T22:25:20.684Z,72.23
2023-05-13T22:27:50.293Z,71.97
2023-05-13T22:30:18.253Z,72.16
2023-05-13T22:32:46.023Z,72.36
2023-05-13T22:35:13.689Z,72.24
2023-05-13T22:37:41.374Z,72.12
2023-05-13T22:40:10.936Z,72.26
2023-05-13T22:42:38.620Z,72.20
2023-05-13T22:45:07.097Z,72.30
2023-05-13T22:47:38.698Z,72.24
2023-05-13T22:50:07.431Z,72.39
2023-05-13T22:52:35.114Z,72.24
2023-05-13T22:55:02.801Z,72.62
2023-05-13T22:57:30.740Z,72.54
2023-05-13T22:59:58.365Z,72.57
2023-05-13T23:02:25.983Z,72.67
2023-05-13T23:04:53.826Z,72.74
2023-05-13T23:07:21.485Z,73.19
2023-05-13T23:09:49.241Z,73.30
2023-05-13T23:12:16.859Z,73.13
2023-05-13T23:14:44.569Z,73.25
2023-05-13T23:17:12.396Z,73.20
2023-05-13T23:19:40.137Z,73.60
2023-05-13T23:22:07.623Z,73.43
2023-05-13T23:24:35.123Z,73.89
2023-05-13T23:27:03.321Z,73.66
2023-05-13T23:29:31.985Z,73.60
2023-05-13T23:32:00.055Z,73.79
2023-05-13T23:34:27.767Z,74.06
2023-05-13T23:36:55.955Z,73.96
2023-05-13T23:39:23.589Z,74.08
2023-05-13T23:41:51.129Z,74.13
2023-05-13T23:44:19.831Z,74.32
2023-05-13T23:46:47.502Z,74.60
2023-05-13T23:49:16.020Z,74.84
2023-05-13T23:51:43.967Z,75.07
2023-05-13T23:54:11.527Z,75.30
2023-05-13T23:56:39.569Z,75.09
2023-05-13T23:59:08.134Z,75.54
